Time,TemperatureF,DewpointF,PressureIn,WindDirection,WindDirectionDegrees,WindSpeedMPH,WindSpeedGustMPH,Humidity,HourlyPrecipIn,Conditions,Clouds,dailyrainin,SoftwareType,DateUTC
2013-02-28 00:01:00,50.2,46.5,30.35,SSW,194,0.0,0.0,87,0.00,,,0.00,WeatherTracker,2013-02-28 08:01:00,
2013-02-28 00:06:00,50.1,46.4,30.35,SSW,195,0.0,0.0,87,0.00,,,0.00,WeatherTracker,2013-02-28 08:06:00,
2013-02-28 00:11:00,50.1,46.4,30.35,SSW,194,0.0,0.0,87,0.00,,,0.00,WeatherTracker,2013-02-28 08:11:00,
2013-02-28 00:16:00,50.0,46.3,30.35,SSW,194,0.0,0.0,87,0.00,,,0.00,WeatherTracker,2013-02-28 08:16:00,
2013-02-28 00:21:00,50.1,46.4,30.35,SSW,194,0.0,0.0,87,0.00,,,0.00,WeatherTracker,2013-02-28 08:21:00,
2013-02-28 00:26:00,49.9,46.2,30.35,SSW,194,0.0,0.0,87,0.00,,,0.00,WeatherTracker,2013-02-28 08:26:00,
2013-02-28 00:31:00,49.8,46.4,30.35,South,191,0.0,0.0,88,0.00,,,0.00,WeatherTracker,2013-02-28 08:31:00,
2013-02-28 00:36:00,49.9,46.5,30.35,South,191,0.0,0.0,88,0.00,,,0.00,WeatherTracker,2013-02-28 08:36:00,
2013-02-28 00:41:00,49.9,46.5,30.36,East,83,0.0,0.0,88,0.00,,,0.00,WeatherTracker,2013-02-28 08:41:00,
2013-02-28 00:46:00,49.6,45.9,30.36,East,84,0.0,0.0,87,0.00,,,0.00,WeatherTracker,2013-02-28 08:46:00,
2013-02-28 00:51:00,49.6,46.2,30.35,SE,146,0.0,0.0,88,0.00,,,0.00,WeatherTracker,2013-02-28 08:51:00,
2013-02-28 00:56:00,49.5,46.1,30.36,SE,145,0.0,0.0,88,0.00,,,0.00,WeatherTracker,2013-02-28 08:56:00,
2013-02-28 01:01:00,49.3,45.9,30.36,ESE,112,0.0,0.0,88,0.00,,,0.00,WeatherTracker,2013-02-28 09:01:00,
2013-02-28 01:06:00,49.5,46.1,30.36,ESE,114,0.0,0.0,88,0.00,,,0.00,WeatherTracker,2013-02-28 09:06:00,
2013-02-28 01:12:00,49.7,46.3,30.36,ESE,115,0.0,0.0,88,0.00,,,0.00,WeatherTracker,2013-02-28 09:12:00,
2013-02-28 01:17:00,49.6,46.2,30.36,ESE,114,0.0,0.0,88,0.00,,,0.00,WeatherTracker,2013-02-28 09:17:00,
2013-02-28 01:22:00,49.5,46.1,30.36,ESE,114,0.0,0.0,88,0.00,,,0.00,WeatherTracker,2013-02-28 09:22:00,
2013-02-28 01:27:00,49.4,46.0,30.36,ESE,115,0.0,0.0,88,0.00,,,0.00,WeatherTracker,2013-02-28 09:27:00,
2013-02-28 01:32:00,49.3,45.9,30.36,ESE,115,0.0,0.0,88,0.00,,,0.00,WeatherTracker,2013-02-28 09:32:00,
2013-02-28 01:37:00,49.2,45.8,30.36,ESE,114,0.0,0.0,88,0.00,,,0.00,WeatherTracker,2013-02-28 09:37:00,
2013-02-28 01:42:00,49.2,45.8,30.36,SW,228,0.0,0.0,88,0.00,,,0.00,WeatherTracker,2013-02-28 09:42:00,
2013-02-28 01:47:00,49.1,45.7,30.36,SW,226,0.0,0.0,88,0.00,,,0.00,WeatherTracker,2013-02-28 09:47:00,
2013-02-28 01:52:00,49.0,45.6,30.36,SW,228,0.0,0.0,88,0.00,,,0.00,WeatherTracker,2013-02-28 09:52:00,
2013-02-28 01:57:00,49.0,45.6,30.37,SW,228,0.0,0.0,88,0.00,,,0.00,WeatherTracker,2013-02-28 09:57:00,
2013-02-28 02:02:00,49.0,45.6,30.37,SW,226,0.0,0.0,88,0.00,,,0.00,WeatherTracker,2013-02-28 10:02:00,
2013-02-28 02:07:00,48.8,45.4,30.37,SW,226,0.0,0.0,88,0.00,,,0.00,WeatherTracker,2013-02-28 10:07:00,
2013-02-28 02:12:00,48.7,45.6,30.37,SW,226,0.0,0.0,89,0.00,,,0.00,WeatherTracker,2013-02-28 10:12:00,
2013-02-28 02:17:00,48.9,45.8,30.36,SW,228,0.0,0.0,89,0.00,,,0.00,WeatherTracker,2013-02-28 10:17:00,
2013-02-28 02:22:00,48.8,45.4,30.36,SW,226,0.0,0.0,88,0.00,,,0.00,WeatherTracker,2013-02-28 10:22:00,
2013-02-28 02:27:00,48.9,45.8,30.36,SW,228,0.0,0.0,89,0.00,,,0.00,WeatherTracker,2013-02-28 10:27:00,
2013-02-28 02:32:00,49.1,46.0,30.36,SW,228,0.0,0.0,89,0.00,,,0.00,WeatherTracker,2013-02-28 10:32:00,
2013-02-28 02:37:00,48.9,45.5,30.36,SW,226,0.0,0.0,88,0.00,,,0.00,WeatherTracker,2013-02-28 10:37:00,
2013-02-28 02:42:00,48.8,45.4,30.36,SW,228,0.0,0.0,88,0.00,,,0.00,WeatherTracker,2013-02-28 10:42:00,
2013-02-28 02:47:00,48.8,45.7,30.36,SW,226,0.0,0.0,89,0.00,,,0.00,WeatherTracker,2013-02-28 10:47:00,
2013-02-28 02:52:00,49.1,46.0,30.36,SW,228,0.0,0.0,89,0.00,,,0.00,WeatherTracker,2013-02-28 10:52:00,
2013-02-28 02:57:00,49.3,46.2,30.36,SW,228,0.0,0.0,89,0.00,,,0.00,WeatherTracker,2013-02-28 10:57:00,
2013-02-28 03:02:00,49.5,46.4,30.36,WSW,252,0.0,0.0,89,0.00,,,0.00,WeatherTracker,2013-02-28 11:02:00,
2013-02-28 03:08:00,49.5,46.1,30.36,WSW,252,0.0,0.0,88,0.00,,,0.00,WeatherTracker,2013-02-28 11:08:00,
2013-02-28 03:13:00,49.4,46.0,30.36,SW,219,1.0,0.0,88,0.00,,,0.00,WeatherTracker,2013-02-28 11:13:00,
2013-02-28 03:18:00,49.4,46.0,30.36,SSW,195,0.0,0.0,88,0.00,,,0.00,WeatherTracker,2013-02-28 11:18:00,
2013-02-28 03:23:00,49.5,46.4,30.36,SW,217,3.0,0.0,89,0.00,,,0.00,WeatherTracker,2013-02-28 11:23:00,
2013-02-28 03:28:00,49.7,46.6,30.36,SW,229,0.0,0.0,89,0.00,,,0.00,WeatherTracker,2013-02-28 11:28:00,
2013-02-28 03:33:00,49.8,46.7,30.36,WSW,248,0.0,0.0,89,0.00,,,0.00,WeatherTracker,2013-02-28 11:33:00,
2013-02-28 03:38:00,49.8,46.7,30.36,WSW,246,0.0,0.0,89,0.00,,,0.00,WeatherTracker,2013-02-28 11:38:00,
2013-02-28 03:43:00,49.8,46.7,30.36,NE,56,1.0,0.0,89,0.00,,,0.00,WeatherTracker,2013-02-28 11:43:00,
2013-02-28 03:48:00,49.8,46.7,30.36,ENE,69,2.0,0.0,89,0.00,,,0.00,WeatherTracker,2013-02-28 11:48:00,
2013-02-28 03:53:00,49.8,47.0,30.36,ENE,77,1.0,0.0,90,0.00,,,0.00,WeatherTracker,2013-02-28 11:53:00,
2013-02-28 03:58:00,49.8,47.0,30.36,ENE,75,2.0,0.0,90,0.00,,,0.00,WeatherTracker,2013-02-28 11:58:00,
2013-02-28 04:03:00,49.8,47.0,30.36,ENE,65,2.0,0.0,90,0.00,,,0.00,WeatherTracker,2013-02-28 12:03:00,
2013-02-28 04:08:00,49.8,47.0,30.36,East,82,0.0,0.0,90,0.00,,,0.00,WeatherTracker,2013-02-28 12:08:00,
2013-02-28 04:13:00,49.7,46.9,30.36,East,82,0.0,0.0,90,0.00,,,0.00,WeatherTracker,2013-02-28 12:13:00,
2013-02-28 04:18:00,49.7,46.9,30.36,East,82,0.0,0.0,90,0.00,,,0.00,WeatherTracker,2013-02-28 12:18:00,
2013-02-28 04:23:00,49.7,46.9,30.36,East,82,0.0,0.0,90,0.00,,,0.00,WeatherTracker,2013-02-28 12:23:00,
2013-02-28 04:28:00,49.6,46.8,30.36,East,82,0.0,0.0,90,0.00,,,0.00,WeatherTracker,2013-02-28 12:28:00,
2013-02-28 04:33:00,49.5,46.7,30.36,SE,129,0.0,0.0,90,0.00,,,0.00,WeatherTracker,2013-02-28 12:33:00,
2013-02-28 04:38:00,49.4,46.6,30.36,SE,129,0.0,0.0,90,0.00,,,0.00,WeatherTracker,2013-02-28 12:38:00,
2013-02-28 04:43:00,49.2,46.4,30.36,SSW,200,0.0,0.0,90,0.00,,,0.00,WeatherTracker,2013-02-28 12:43:00,
2013-02-28 04:48:00,49.0,46.2,30.36,SW,222,0.0,0.0,90,0.00,,,0.00,WeatherTracker,2013-02-28 12:48:00,
2013-02-28 04:53:00,48.9,46.1,30.36,WSW,243,0.0,0.0,90,0.00,,,0.00,WeatherTracker,2013-02-28 12:53:00,
2013-02-28 04:59:00,48.7,45.9,30.37,WSW,243,0.0,0.0,90,0.00,,,0.00,WeatherTracker,2013-02-28 12:59:00,
2013-02-28 05:04:00,48.6,46.1,30.37,SSW,193,0.0,0.0,91,0.00,,,0.00,WeatherTracker,2013-02-28 13:04:00,
2013-02-28 05:09:00,48.6,46.1,30.37,SW,231,1.0,0.0,91,0.00,,,0.00,WeatherTracker,2013-02-28 13:09:00,
2013-02-28 05:14:00,48.6,46.1,30.37,SSW,207,0.0,0.0,91,0.00,,,0.00,WeatherTracker,2013-02-28 13:14:00,
2013-02-28 05:19:00,48.5,46.0,30.37,SSW,207,0.0,0.0,91,0.00,,,0.00,WeatherTracker,2013-02-28 13:19:00,
2013-02-28 05:24:00,48.4,45.9,30.38,SSW,207,0.0,0.0,91,0.00,,,0.00,WeatherTracker,2013-02-28 13:24:00,
2013-02-28 05:29:00,48.4,45.9,30.38,SSW,207,0.0,0.0,91,0.00,,,0.00,WeatherTracker,2013-02-28 13:29:00,
2013-02-28 05:34:00,48.4,45.9,30.38,SSW,207,0.0,0.0,91,0.00,,,0.00,WeatherTracker,2013-02-28 13:34:00,
2013-02-28 05:39:00,48.5,46.3,30.38,SSW,208,0.0,0.0,92,0.00,,,0.00,WeatherTracker,2013-02-28 13:39:00,
2013-02-28 05:44:00,48.7,46.5,30.38,SSW,208,0.0,0.0,92,0.00,,,0.00,WeatherTracker,2013-02-28 13:44:00,
2013-02-28 05:49:00,48.7,46.5,30.38,SSW,208,0.0,0.0,92,0.00,,,0.00,WeatherTracker,2013-02-28 13:49:00,
2013-02-28 05:54:00,49.8,48.1,30.39,SSW,208,0.0,0.0,94,0.00,,,0.00,WeatherTracker,2013-02-28 13:54:00,
2013-02-28 05:59:00,50.3,48.4,30.39,SSW,208,0.0,0.0,93,0.00,,,0.00,WeatherTracker,2013-02-28 13:59:00,
2013-02-28 06:04:00,49.6,47.1,30.39,SSW,209,0.0,0.0,91,0.00,,,0.00,WeatherTracker,2013-02-28 14:04:00,
2013-02-28 06:09:00,49.1,46.6,30.39,SSW,208,0.0,0.0,91,0.00,,,0.00,WeatherTracker,2013-02-28 14:09:00,
2013-02-28 06:14:00,49.1,46.6,30.39,SSE,163,0.0,0.0,91,0.00,,,0.00,WeatherTracker,2013-02-28 14:14:00,
2013-02-28 06:19:00,49.3,46.8,30.39,SSE,163,0.0,0.0,91,0.00,,,0.00,WeatherTracker,2013-02-28 14:19:00,
2013-02-28 06:24:00,49.5,47.0,30.39,SSE,163,0.0,0.0,91,0.00,,,0.00,WeatherTracker,2013-02-28 14:24:00,
2013-02-28 06:30:00,49.6,47.1,30.39,SSE,164,0.0,0.0,91,0.00,,,0.00,WeatherTracker,2013-02-28 14:30:00,
2013-02-28 06:35:00,49.6,47.1,30.39,SSE,163,0.0,0.0,91,0.00,,,0.00,WeatherTracker,2013-02-28 14:35:00,
2013-02-28 06:40:00,49.5,46.7,30.39,SW,233,0.0,0.0,90,0.00,,,0.00,WeatherTracker,2013-02-28 14:40:00,
2013-02-28 06:45:00,49.5,47.0,30.39,SW,233,0.0,0.0,91,0.00,,,0.00,WeatherTracker,2013-02-28 14:45:00,
2013-02-28 06:50:00,49.5,47.0,30.39,SW,233,0.0,0.0,91,0.00,,,0.00,WeatherTracker,2013-02-28 14:50:00,
2013-02-28 06:55:00,49.7,47.2,30.39,SW,233,0.0,0.0,91,0.00,,,0.00,WeatherTracker,2013-02-28 14:55:00,
2013-02-28 07:00:00,49.9,47.4,30.40,SW,233,0.0,0.0,91,0.00,,,0.00,WeatherTracker,2013-02-28 15:00:00,
2013-02-28 07:05:00,50.3,47.5,30.40,SW,233,0.0,0.0,90,0.00,,,0.00,WeatherTracker,2013-02-28 15:05:00,
2013-02-28 07:10:00,50.6,47.8,30.40,SW,233,0.0,0.0,90,0.00,,,0.00,WeatherTracker,2013-02-28 15:10:00,
2013-02-28 07:15:00,51.1,48.3,30.40,SW,233,0.0,0.0,90,0.00,,,0.00,WeatherTracker,2013-02-28 15:15:00,
2013-02-28 07:20:00,52.2,49.4,30.40,SW,233,0.0,0.0,90,0.00,,,0.00,WeatherTracker,2013-02-28 15:20:00,
2013-02-28 07:25:00,52.6,49.1,30.40,ESE,111,0.0,0.0,88,0.00,,,0.00,WeatherTracker,2013-02-28 15:25:00,
2013-02-28 07:30:00,53.0,49.2,30.40,ESE,113,0.0,0.0,87,0.00,,,0.00,WeatherTracker,2013-02-28 15:30:00,
2013-02-28 07:35:00,53.0,48.9,30.40,South,177,1.0,0.0,86,0.00,,,0.00,WeatherTracker,2013-02-28 15:35:00,
2013-02-28 07:40:00,52.9,48.8,30.40,SW,215,0.0,0.0,86,0.00,,,0.00,WeatherTracker,2013-02-28 15:40:00,
2013-02-28 07:45:00,53.4,49.3,30.40,SSE,153,0.0,0.0,86,0.00,,,0.00,WeatherTracker,2013-02-28 15:45:00,
2013-02-28 07:50:00,53.9,49.5,30.41,SSE,149,1.0,0.0,85,0.00,,,0.00,WeatherTracker,2013-02-28 15:50:00,
2013-02-28 07:56:00,53.8,49.1,30.41,SE,124,0.0,0.0,84,0.00,,,0.00,WeatherTracker,2013-02-28 15:56:00,
2013-02-28 08:01:00,53.7,49.0,30.41,SE,126,1.0,0.0,84,0.00,,,0.00,WeatherTracker,2013-02-28 16:01:00,
2013-02-28 08:06:00,53.7,49.0,30.41,SE,143,0.0,0.0,84,0.00,,,0.00,WeatherTracker,2013-02-28 16:06:00,
2013-02-28 08:11:00,53.9,49.2,30.41,SE,143,0.0,0.0,84,0.00,,,0.00,WeatherTracker,2013-02-28 16:11:00,
2013-02-28 08:16:00,53.9,48.9,30.41,East,98,1.0,0.0,83,0.00,,,0.00,WeatherTracker,2013-02-28 16:16:00,
2013-02-28 08:21:00,53.9,49.2,30.41,SE,129,0.0,0.0,84,0.00,,,0.00,WeatherTracker,2013-02-28 16:21:00,
2013-02-28 08:26:00,54.1,49.1,30.42,ENE,68,2.0,0.0,83,0.00,,,0.00,WeatherTracker,2013-02-28 16:26:00,
2013-02-28 08:31:00,54.0,49.3,30.42,SE,132,0.0,0.0,84,0.00,,,0.00,WeatherTracker,2013-02-28 16:31:00,
2013-02-28 08:36:00,54.8,49.7,30.42,SE,138,1.0,0.0,83,0.00,,,0.00,WeatherTracker,2013-02-28 16:36:00,
2013-02-28 08:41:00,55.3,49.9,30.42,ESE,105,1.0,0.0,82,0.00,,,0.00,WeatherTracker,2013-02-28 16:41:00,
2013-02-28 08:46:00,55.2,49.5,30.42,East,85,1.0,0.0,81,0.00,,,0.00,WeatherTracker,2013-02-28 16:46:00,
2013-02-28 08:51:00,56.0,50.6,30.43,SE,132,0.0,0.0,82,0.00,,,0.00,WeatherTracker,2013-02-28 16:51:00,
2013-02-28 08:56:00,56.7,50.3,30.43,SE,145,0.0,0.0,79,0.00,,,0.00,WeatherTracker,2013-02-28 16:56:00,
2013-02-28 09:01:00,57.1,50.3,30.43,SE,127,1.0,0.0,78,0.00,,,0.00,WeatherTracker,2013-02-28 17:01:00,
2013-02-28 09:06:00,57.3,50.5,30.43,ESE,120,0.0,0.0,78,0.00,,,0.00,WeatherTracker,2013-02-28 17:06:00,
2013-02-28 09:11:00,57.8,50.3,30.43,SW,221,0.0,0.0,76,0.00,,,0.00,WeatherTracker,2013-02-28 17:11:00,
2013-02-28 09:16:00,58.2,51.0,30.43,NE,49,0.0,0.0,77,0.00,,,0.00,WeatherTracker,2013-02-28 17:16:00,
2013-02-28 09:21:00,58.4,50.5,30.43,ENE,58,1.0,0.0,75,0.00,,,0.00,WeatherTracker,2013-02-28 17:21:00,
2013-02-28 09:26:00,57.9,50.4,30.43,ENE,65,0.0,0.0,76,0.00,,,0.00,WeatherTracker,2013-02-28 17:26:00,
2013-02-28 09:31:00,58.4,50.9,30.43,ESE,107,1.0,0.0,76,0.00,,,0.00,WeatherTracker,2013-02-28 17:31:00,
2013-02-28 09:36:00,58.3,50.8,30.43,North,352,1.0,0.0,76,0.00,,,0.00,WeatherTracker,2013-02-28 17:36:00,
2013-02-28 09:42:00,58.1,50.6,30.43,NW,323,0.0,0.0,76,0.00,,,0.00,WeatherTracker,2013-02-28 17:42:00,
2013-02-28 09:47:00,58.4,51.2,30.43,NE,44,1.0,0.0,77,0.00,,,0.00,WeatherTracker,2013-02-28 17:47:00,
2013-02-28 09:52:00,59.1,51.5,30.43,ESE,109,2.0,0.0,76,0.00,,,0.00,WeatherTracker,2013-02-28 17:52:00,
2013-02-28 09:57:00,59.8,51.9,30.43,WSW,242,2.0,0.0,75,0.00,,,0.00,WeatherTracker,2013-02-28 17:57:00,
2013-02-28 10:02:00,60.2,51.9,30.43,SE,139,0.0,0.0,74,0.00,,,0.00,WeatherTracker,2013-02-28 18:02:00,
2013-02-28 10:07:00,61.2,51.7,30.43,WSW,243,1.0,0.0,71,0.00,,,0.00,WeatherTracker,2013-02-28 18:07:00,
2013-02-28 10:12:00,61.6,51.3,30.43,WSW,257,1.0,0.0,69,0.00,,,0.00,WeatherTracker,2013-02-28 18:12:00,
2013-02-28 10:17:00,61.3,51.4,30.43,NNW,332,3.0,0.0,70,0.00,,,0.00,WeatherTracker,2013-02-28 18:17:00,
2013-02-28 10:22:00,60.5,51.0,30.43,NNE,32,6.0,0.0,71,0.00,,,0.00,WeatherTracker,2013-02-28 18:22:00,
2013-02-28 10:27:00,59.7,51.0,30.43,ENE,70,5.0,0.0,73,0.00,,,0.00,WeatherTracker,2013-02-28 18:27:00,
2013-02-28 10:32:00,59.2,50.9,30.43,NE,45,5.0,0.0,74,0.00,,,0.00,WeatherTracker,2013-02-28 18:32:00,
2013-02-28 10:37:00,59.5,51.2,30.43,NE,43,4.0,0.0,74,0.00,,,0.00,WeatherTracker,2013-02-28 18:37:00,
2013-02-28 10:42:00,59.8,51.5,30.43,NNE,13,4.0,0.0,74,0.00,,,0.00,WeatherTracker,2013-02-28 18:42:00,
2013-02-28 10:47:00,59.8,51.1,30.43,NNW,342,4.0,0.0,73,0.00,,,0.00,WeatherTracker,2013-02-28 18:47:00,
2013-02-28 10:52:00,59.9,51.2,30.43,NE,48,4.0,0.0,73,0.00,,,0.00,WeatherTracker,2013-02-28 18:52:00,
2013-02-28 10:57:00,60.0,51.7,30.43,NNE,29,1.0,0.0,74,0.00,,,0.00,WeatherTracker,2013-02-28 18:57:00,
2013-02-28 11:02:00,60.6,51.5,30.42,ENE,77,5.0,0.0,72,0.00,,,0.00,WeatherTracker,2013-02-28 19:02:00,
2013-02-28 11:07:00,60.6,51.5,30.42,ENE,68,3.0,0.0,72,0.00,,,0.00,WeatherTracker,2013-02-28 19:07:00,
2013-02-28 11:12:00,60.4,51.3,30.42,NE,43,0.0,0.0,72,0.00,,,0.00,WeatherTracker,2013-02-28 19:12:00,
2013-02-28 11:17:00,61.0,51.9,30.42,ENE,72,3.0,0.0,72,0.00,,,0.00,WeatherTracker,2013-02-28 19:17:00,
2013-02-28 11:22:00,61.2,51.7,30.42,South,174,0.0,0.0,71,0.00,,,0.00,WeatherTracker,2013-02-28 19:22:00,
2013-02-28 11:27:00,62.0,52.1,30.42,SSW,193,0.0,0.0,70,0.00,,,0.00,WeatherTracker,2013-02-28 19:27:00,
2013-02-28 11:32:00,62.3,52.0,30.42,ENE,76,2.0,0.0,69,0.00,,,0.00,WeatherTracker,2013-02-28 19:32:00,
2013-02-28 11:37:00,61.8,51.9,30.42,WNW,301,3.0,0.0,70,0.00,,,0.00,WeatherTracker,2013-02-28 19:37:00,
2013-02-28 11:42:00,60.4,51.7,30.42,WSW,239,8.0,0.0,73,0.00,,,0.00,WeatherTracker,2013-02-28 19:42:00,
2013-02-28 11:47:00,58.9,50.6,30.42,WSW,248,9.0,0.0,74,0.00,,,0.00,WeatherTracker,2013-02-28 19:47:00,
2013-02-28 11:52:00,57.5,50.3,30.42,WSW,257,4.0,0.0,77,0.00,,,0.00,WeatherTracker,2013-02-28 19:52:00,
2013-02-28 11:57:00,56.3,49.9,30.43,WSW,258,3.0,0.0,79,0.00,,,0.00,WeatherTracker,2013-02-28 19:57:00,
2013-02-28 12:02:00,55.7,50.0,30.42,WSW,257,9.0,0.0,81,0.00,,,0.00,WeatherTracker,2013-02-28 20:02:00,
2013-02-28 12:07:00,55.0,49.6,30.43,West,264,8.0,0.0,82,0.00,,,0.00,WeatherTracker,2013-02-28 20:07:00,
2013-02-28 12:12:00,54.8,50.4,30.42,WNW,298,10.0,0.0,85,0.00,,,0.00,WeatherTracker,2013-02-28 20:12:00,
2013-02-28 12:18:00,55.3,50.5,30.42,West,273,4.0,0.0,84,0.00,,,0.00,WeatherTracker,2013-02-28 20:18:00,
2013-02-28 12:23:00,55.9,50.5,30.42,WNW,291,7.0,0.0,82,0.00,,,0.00,WeatherTracker,2013-02-28 20:23:00,
2013-02-28 12:28:00,55.6,50.2,30.42,WSW,252,7.0,0.0,82,0.00,,,0.00,WeatherTracker,2013-02-28 20:28:00,
2013-02-28 12:33:00,55.6,50.5,30.42,WNW,290,4.0,0.0,83,0.00,,,0.00,WeatherTracker,2013-02-28 20:33:00,
2013-02-28 12:38:00,56.8,51.0,30.41,South,188,5.0,0.0,81,0.00,,,0.00,WeatherTracker,2013-02-28 20:38:00,
2013-02-28 12:43:00,57.7,51.2,30.41,West,263,9.0,0.0,79,0.00,,,0.00,WeatherTracker,2013-02-28 20:43:00,
2013-02-28 12:48:00,57.6,50.8,30.41,WSW,248,6.0,0.0,78,0.00,,,0.00,WeatherTracker,2013-02-28 20:48:00,
2013-02-28 12:53:00,57.5,51.4,30.41,WNW,297,5.0,0.0,80,0.00,,,0.00,WeatherTracker,2013-02-28 20:53:00,
2013-02-28 12:58:00,57.5,51.0,30.41,West,272,7.0,0.0,79,0.00,,,0.00,WeatherTracker,2013-02-28 20:58:00,
2013-02-28 13:03:00,57.8,51.3,30.40,West,276,10.0,0.0,79,0.00,,,0.00,WeatherTracker,2013-02-28 21:03:00,
2013-02-28 13:08:00,57.7,50.9,30.40,West,263,7.0,0.0,78,0.00,,,0.00,WeatherTracker,2013-02-28 21:08:00,
2013-02-28 13:13:00,57.7,50.9,30.40,NW,313,5.0,0.0,78,0.00,,,0.00,WeatherTracker,2013-02-28 21:13:00,
2013-02-28 13:18:00,57.7,50.9,30.39,West,267,11.0,0.0,78,0.00,,,0.00,WeatherTracker,2013-02-28 21:18:00,
2013-02-28 13:23:00,56.8,50.4,30.39,WNW,288,6.0,0.0,79,0.00,,,0.00,WeatherTracker,2013-02-28 21:23:00,
2013-02-28 13:28:00,56.8,51.0,30.39,West,260,4.0,0.0,81,0.00,,,0.00,WeatherTracker,2013-02-28 21:28:00,
2013-02-28 13:33:00,56.9,50.8,30.39,WSW,246,13.0,0.0,80,0.00,,,0.00,WeatherTracker,2013-02-28 21:33:00,
2013-02-28 13:38:00,56.9,51.1,30.39,West,270,3.0,0.0,81,0.00,,,0.00,WeatherTracker,2013-02-28 21:38:00,
2013-02-28 13:43:00,56.7,50.6,30.39,WSW,239,16.0,0.0,80,0.00,,,0.00,WeatherTracker,2013-02-28 21:43:00,
2013-02-28 13:48:00,56.1,50.7,30.39,West,281,6.0,0.0,82,0.00,,,0.00,WeatherTracker,2013-02-28 21:48:00,
2013-02-28 13:53:00,55.9,50.8,30.39,WSW,256,11.0,0.0,83,0.00,,,0.00,WeatherTracker,2013-02-28 21:53:00,
2013-02-28 13:58:00,56.3,50.5,30.39,WSW,256,10.0,0.0,81,0.00,,,0.00,WeatherTracker,2013-02-28 21:58:00,
2013-02-28 14:03:00,56.2,50.8,30.39,WSW,257,13.0,0.0,82,0.00,,,0.00,WeatherTracker,2013-02-28 22:03:00,
2013-02-28 14:08:00,56.3,50.5,30.39,West,278,4.0,0.0,81,0.00,,,0.00,WeatherTracker,2013-02-28 22:08:00,
2013-02-28 14:13:00,56.2,50.4,30.39,WSW,249,11.0,0.0,81,0.00,,,0.00,WeatherTracker,2013-02-28 22:13:00,
2013-02-28 14:18:00,56.5,50.7,30.38,West,277,13.0,0.0,81,0.00,,,0.00,WeatherTracker,2013-02-28 22:18:00,
2013-02-28 14:24:00,57.0,50.6,30.38,WSW,238,8.0,0.0,79,0.00,,,0.00,WeatherTracker,2013-02-28 22:24:00,
2013-02-28 14:29:00,57.3,50.5,30.38,WSW,238,17.0,0.0,78,0.00,,,0.00,WeatherTracker,2013-02-28 22:29:00,
2013-02-28 14:34:00,57.5,50.7,30.38,West,276,9.0,0.0,78,0.00,,,0.00,WeatherTracker,2013-02-28 22:34:00,
2013-02-28 14:39:00,56.9,50.1,30.38,WSW,245,10.0,0.0,78,0.00,,,0.00,WeatherTracker,2013-02-28 22:39:00,
2013-02-28 14:44:00,56.3,49.9,30.38,West,277,7.0,0.0,79,0.00,,,0.00,WeatherTracker,2013-02-28 22:44:00,
2013-02-28 14:49:00,56.3,50.5,30.39,West,259,11.0,0.0,81,0.00,,,0.00,WeatherTracker,2013-02-28 22:49:00,
2013-02-28 14:54:00,56.2,50.4,30.38,West,264,8.0,0.0,81,0.00,,,0.00,WeatherTracker,2013-02-28 22:54:00,
2013-02-28 14:59:00,56.3,50.2,30.39,West,273,11.0,0.0,80,0.00,,,0.00,WeatherTracker,2013-02-28 22:59:00,
2013-02-28 15:04:00,56.5,50.4,30.38,West,275,9.0,0.0,80,0.00,,,0.00,WeatherTracker,2013-02-28 23:04:00,
2013-02-28 15:09:00,56.5,50.4,30.38,WSW,243,17.0,0.0,80,0.00,,,0.00,WeatherTracker,2013-02-28 23:09:00,
2013-02-28 15:14:00,56.4,50.3,30.38,WNW,284,14.0,0.0,80,0.00,,,0.00,WeatherTracker,2013-02-28 23:14:00,
2013-02-28 15:19:00,56.6,50.5,30.38,WSW,252,15.0,0.0,80,0.00,,,0.00,WeatherTracker,2013-02-28 23:19:00,
2013-02-28 15:24:00,56.5,50.4,30.38,WNW,299,6.0,0.0,80,0.00,,,0.00,WeatherTracker,2013-02-28 23:24:00,
2013-02-28 15:29:00,56.3,50.2,30.38,SW,229,11.0,0.0,80,0.00,,,0.00,WeatherTracker,2013-02-28 23:29:00,
2013-02-28 15:34:00,56.2,50.1,30.38,WSW,242,9.0,0.0,80,0.00,,,0.00,WeatherTracker,2013-02-28 23:34:00,
2013-02-28 15:39:00,56.3,50.2,30.38,NW,321,9.0,0.0,80,0.00,,,0.00,WeatherTracker,2013-02-28 23:39:00,
2013-02-28 15:44:00,56.6,50.5,30.38,WNW,290,11.0,0.0,80,0.00,,,0.00,WeatherTracker,2013-02-28 23:44:00,
2013-02-28 15:49:00,56.9,50.5,30.38,West,264,9.0,0.0,79,0.00,,,0.00,WeatherTracker,2013-02-28 23:49:00,
2013-02-28 15:54:00,56.9,50.8,30.38,West,277,4.0,0.0,80,0.00,,,0.00,WeatherTracker,2013-02-28 23:54:00,
2013-02-28 15:59:00,57.2,50.7,30.37,WSW,249,9.0,0.0,79,0.00,,,0.00,WeatherTracker,2013-02-28 23:59:00,
2013-02-28 16:04:00,57.4,50.9,30.37,SW,228,8.0,0.0,79,0.00,,,0.00,WeatherTracker,2013-03-01 00:04:00,
2013-02-28 16:09:00,57.6,51.1,30.37,West,274,6.0,0.0,79,0.00,,,0.00,WeatherTracker,2013-03-01 00:09:00,
2013-02-28 16:15:00,57.9,51.1,30.37,WSW,243,5.0,0.0,78,0.00,,,0.00,WeatherTracker,2013-03-01 00:15:00,
2013-02-28 16:20:00,57.8,51.0,30.37,WNW,283,4.0,0.0,78,0.00,,,0.00,WeatherTracker,2013-03-01 00:20:00,
2013-02-28 16:25:00,58.0,51.2,30.37,West,276,6.0,0.0,78,0.00,,,0.00,WeatherTracker,2013-03-01 00:25:00,
2013-02-28 16:30:00,57.8,50.6,30.37,WSW,252,14.0,0.0,77,0.00,,,0.00,WeatherTracker,2013-03-01 00:30:00,
2013-02-28 16:35:00,57.3,50.5,30.37,WSW,249,7.0,0.0,78,0.00,,,0.00,WeatherTracker,2013-03-01 00:35:00,
2013-02-28 16:40:00,57.2,50.7,30.37,WNW,283,4.0,0.0,79,0.00,,,0.00,WeatherTracker,2013-03-01 00:40:00,
2013-02-28 16:45:00,56.8,50.4,30.37,WNW,292,4.0,0.0,79,0.00,,,0.00,WeatherTracker,2013-03-01 00:45:00,
2013-02-28 16:50:00,56.6,50.8,30.37,WSW,238,0.0,0.0,81,0.00,,,0.00,WeatherTracker,2013-03-01 00:50:00,
2013-02-28 16:55:00,56.4,50.3,30.37,WSW,246,4.0,0.0,80,0.00,,,0.00,WeatherTracker,2013-03-01 00:55:00,
2013-02-28 17:00:00,56.4,50.6,30.37,NNE,32,2.0,0.0,81,0.00,,,0.00,WeatherTracker,2013-03-01 01:00:00,
2013-02-28 17:05:00,56.6,50.8,30.37,WSW,245,1.0,0.0,81,0.00,,,0.00,WeatherTracker,2013-03-01 01:05:00,
2013-02-28 17:10:00,57.1,51.0,30.38,North,350,2.0,0.0,80,0.00,,,0.00,WeatherTracker,2013-03-01 01:10:00,
2013-02-28 17:15:00,56.6,50.2,30.38,SSW,208,6.0,0.0,79,0.00,,,0.00,WeatherTracker,2013-03-01 01:15:00,
2013-02-28 17:20:00,55.8,50.1,30.38,SW,236,3.0,0.0,81,0.00,,,0.00,WeatherTracker,2013-03-01 01:20:00,
2013-02-28 17:25:00,55.8,50.4,30.38,ENE,59,0.0,0.0,82,0.00,,,0.00,WeatherTracker,2013-03-01 01:25:00,
2013-02-28 17:30:00,55.4,49.7,30.37,SW,221,2.0,0.0,81,0.00,,,0.00,WeatherTracker,2013-03-01 01:30:00,
2013-02-28 17:35:00,55.0,49.9,30.37,WSW,248,5.0,0.0,83,0.00,,,0.00,WeatherTracker,2013-03-01 01:35:00,
2013-02-28 17:40:00,54.8,50.1,30.37,SW,228,8.0,0.0,84,0.00,,,0.00,WeatherTracker,2013-03-01 01:40:00,
2013-02-28 17:45:00,54.9,50.2,30.37,SW,215,0.0,0.0,84,0.00,,,0.00,WeatherTracker,2013-03-01 01:45:00,
2013-02-28 17:50:00,54.9,50.2,30.37,WSW,255,2.0,0.0,84,0.00,,,0.00,WeatherTracker,2013-03-01 01:50:00,
2013-02-28 17:55:00,54.9,50.2,30.37,West,278,0.0,0.0,84,0.00,,,0.00,WeatherTracker,2013-03-01 01:55:00,
2013-02-28 18:01:00,54.9,50.2,30.37,SW,222,1.0,0.0,84,0.00,,,0.00,WeatherTracker,2013-03-01 02:01:00,
2013-02-28 18:06:00,54.6,49.9,30.37,NW,309,1.0,0.0,84,0.00,,,0.00,WeatherTracker,2013-03-01 02:06:00,
2013-02-28 18:11:00,54.2,49.8,30.37,WNW,293,1.0,0.0,85,0.00,,,0.00,WeatherTracker,2013-03-01 02:11:00,
2013-02-28 18:16:00,53.8,49.4,30.37,NE,53,0.0,0.0,85,0.00,,,0.00,WeatherTracker,2013-03-01 02:16:00,
2013-02-28 18:21:00,53.7,49.6,30.38,ENE,71,1.0,0.0,86,0.00,,,0.00,WeatherTracker,2013-03-01 02:21:00,
2013-02-28 18:26:00,53.6,49.5,30.38,West,264,2.0,0.0,86,0.00,,,0.00,WeatherTracker,2013-03-01 02:26:00,
2013-02-28 18:31:00,53.5,49.7,30.38,SSE,153,0.0,0.0,87,0.00,,,0.00,WeatherTracker,2013-03-01 02:31:00,
2013-02-28 18:36:00,53.5,49.7,30.38,SE,127,1.0,0.0,87,0.00,,,0.00,WeatherTracker,2013-03-01 02:36:00,
2013-02-28 18:41:00,53.4,49.6,30.38,SW,236,3.0,0.0,87,0.00,,,0.00,WeatherTracker,2013-03-01 02:41:00,
2013-02-28 18:46:00,53.2,49.4,30.38,SW,235,2.0,0.0,87,0.00,,,0.00,WeatherTracker,2013-03-01 02:46:00,
2013-02-28 18:51:00,53.1,49.3,30.39,WSW,246,4.0,0.0,87,0.00,,,0.00,WeatherTracker,2013-03-01 02:51:00,
2013-02-28 18:56:00,53.2,49.7,30.39,SW,214,3.0,0.0,88,0.00,,,0.00,WeatherTracker,2013-03-01 02:56:00,
2013-02-28 19:01:00,53.2,49.7,30.39,SSE,153,0.0,0.0,88,0.00,,,0.00,WeatherTracker,2013-03-01 03:01:00,
2013-02-28 19:06:00,53.1,49.3,30.39,SSW,195,0.0,0.0,87,0.00,,,0.00,WeatherTracker,2013-03-01 03:06:00,
2013-02-28 19:11:00,53.2,49.7,30.39,SW,235,4.0,0.0,88,0.00,,,0.00,WeatherTracker,2013-03-01 03:11:00,
2013-02-28 19:16:00,53.3,49.8,30.39,East,82,0.0,0.0,88,0.00,,,0.00,WeatherTracker,2013-03-01 03:16:00,
2013-02-28 19:21:00,53.3,49.8,30.39,West,264,3.0,0.0,88,0.00,,,0.00,WeatherTracker,2013-03-01 03:21:00,
2013-02-28 19:26:00,53.3,49.5,30.39,WNW,300,0.0,0.0,87,0.00,,,0.00,WeatherTracker,2013-03-01 03:26:00,
2013-02-28 19:31:00,53.3,49.5,30.40,ENE,75,1.0,0.0,87,0.00,,,0.00,WeatherTracker,2013-03-01 03:31:00,
2013-02-28 19:36:00,53.3,49.5,30.40,WNW,288,0.0,0.0,87,0.00,,,0.00,WeatherTracker,2013-03-01 03:36:00,
2013-02-28 19:42:00,53.3,49.5,30.40,West,273,1.0,0.0,87,0.00,,,0.00,WeatherTracker,2013-03-01 03:42:00,
2013-02-28 19:47:00,53.3,49.5,30.40,West,271,1.0,0.0,87,0.00,,,0.00,WeatherTracker,2013-03-01 03:47:00,
2013-02-28 19:52:00,53.1,49.3,30.40,WSW,253,1.0,0.0,87,0.00,,,0.00,WeatherTracker,2013-03-01 03:52:00,
2013-02-28 19:57:00,53.0,49.2,30.40,WNW,288,3.0,0.0,87,0.00,,,0.00,WeatherTracker,2013-03-01 03:57:00,
2013-02-28 20:02:00,52.7,48.9,30.40,WSW,238,3.0,0.0,87,0.00,,,0.00,WeatherTracker,2013-03-01 04:02:00,
2013-02-28 20:07:00,52.4,49.0,30.40,West,259,2.0,0.0,88,0.00,,,0.00,WeatherTracker,2013-03-01 04:07:00,
2013-02-28 20:12:00,52.2,48.8,30.40,West,281,2.0,0.0,88,0.00,,,0.00,WeatherTracker,2013-03-01 04:12:00,
2013-02-28 20:17:00,52.0,48.9,30.40,West,260,1.0,0.0,89,0.00,,,0.00,WeatherTracker,2013-03-01 04:17:00,
2013-02-28 20:22:00,51.9,48.8,30.40,WNW,288,2.0,0.0,89,0.00,,,0.00,WeatherTracker,2013-03-01 04:22:00,
2013-02-28 20:27:00,51.8,48.7,30.41,WNW,288,1.0,0.0,89,0.00,,,0.00,WeatherTracker,2013-03-01 04:27:00,
2013-02-28 20:32:00,51.8,49.0,30.41,West,271,0.0,0.0,90,0.00,,,0.00,WeatherTracker,2013-03-01 04:32:00,
2013-02-28 20:37:00,51.8,49.0,30.41,West,281,0.0,0.0,90,0.00,,,0.00,WeatherTracker,2013-03-01 04:37:00,
2013-02-28 20:42:00,51.8,49.0,30.41,West,278,0.0,0.0,90,0.00,,,0.00,WeatherTracker,2013-03-01 04:42:00,
2013-02-28 20:47:00,51.8,49.0,30.41,West,278,0.0,0.0,90,0.00,,,0.00,WeatherTracker,2013-03-01 04:47:00,
2013-02-28 20:52:00,51.8,49.0,30.41,WSW,257,1.0,0.0,90,0.00,,,0.00,WeatherTracker,2013-03-01 04:52:00,
2013-02-28 20:57:00,51.7,48.9,30.41,WSW,248,0.0,0.0,90,0.00,,,0.00,WeatherTracker,2013-03-01 04:57:00,
2013-02-28 21:00:00,51.6,48.8,30.41,WSW,252,0.0,0.0,90,0.00,,,0.00,WeatherTracker,2013-03-01 05:00:00,
2013-02-28 21:06:00,51.6,48.8,30.41,West,270,0.0,0.0,90,0.00,,,0.00,WeatherTracker,2013-03-01 05:06:00,
2013-02-28 21:11:00,51.5,48.7,30.41,West,270,0.0,0.0,90,0.00,,,0.00,WeatherTracker,2013-03-01 05:11:00,
2013-02-28 21:16:00,51.4,48.6,30.41,West,270,0.0,0.0,90,0.00,,,0.00,WeatherTracker,2013-03-01 05:16:00,
2013-02-28 21:21:00,51.5,48.7,30.41,West,270,0.0,0.0,90,0.00,,,0.00,WeatherTracker,2013-03-01 05:21:00,
2013-02-28 21:26:00,51.5,48.7,30.41,West,270,0.0,0.0,90,0.00,,,0.00,WeatherTracker,2013-03-01 05:26:00,
2013-02-28 21:31:00,51.5,48.7,30.41,West,270,0.0,0.0,90,0.00,,,0.00,WeatherTracker,2013-03-01 05:31:00,
2013-02-28 21:36:00,51.5,48.7,30.41,WNW,302,0.0,0.0,90,0.00,,,0.00,WeatherTracker,2013-03-01 05:36:00,
2013-02-28 21:41:00,51.6,48.8,30.41,ESE,105,2.0,0.0,90,0.00,,,0.00,WeatherTracker,2013-03-01 05:41:00,
2013-02-28 21:46:00,51.6,48.8,30.41,East,96,1.0,0.0,90,0.00,,,0.00,WeatherTracker,2013-03-01 05:46:00,
2013-02-28 21:51:00,51.6,48.8,30.41,ESE,110,0.0,0.0,90,0.00,,,0.00,WeatherTracker,2013-03-01 05:51:00,
2013-02-28 21:56:00,51.6,48.8,30.42,NNW,339,0.0,0.0,90,0.00,,,0.00,WeatherTracker,2013-03-01 05:56:00,
2013-02-28 22:01:00,51.4,48.6,30.42,NNW,341,0.0,0.0,90,0.00,,,0.00,WeatherTracker,2013-03-01 06:01:00,
2013-02-28 22:06:00,51.2,48.4,30.42,NNW,341,0.0,0.0,90,0.00,,,0.00,WeatherTracker,2013-03-01 06:06:00,
2013-02-28 22:11:00,51.0,48.2,30.41,NNW,341,0.0,0.0,90,0.00,,,0.00,WeatherTracker,2013-03-01 06:11:00,
2013-02-28 22:16:00,51.0,48.5,30.42,NNW,341,0.0,0.0,91,0.00,,,0.00,WeatherTracker,2013-03-01 06:16:00,
2013-02-28 22:21:00,51.0,48.5,30.42,NE,42,0.0,0.0,91,0.00,,,0.00,WeatherTracker,2013-03-01 06:21:00,
2013-02-28 22:26:00,51.2,48.7,30.42,NE,43,0.0,0.0,91,0.00,,,0.00,WeatherTracker,2013-03-01 06:26:00,
2013-02-28 22:32:00,51.2,48.7,30.42,ENE,68,0.0,0.0,91,0.00,,,0.00,WeatherTracker,2013-03-01 06:32:00,
2013-02-28 22:37:00,50.9,48.1,30.42,SE,139,0.0,0.0,90,0.00,,,0.00,WeatherTracker,2013-03-01 06:37:00,
2013-02-28 22:42:00,50.8,48.3,30.42,SE,141,0.0,0.0,91,0.00,,,0.00,WeatherTracker,2013-03-01 06:42:00,
2013-02-28 22:47:00,50.8,48.3,30.42,SE,135,0.0,0.0,91,0.00,,,0.00,WeatherTracker,2013-03-01 06:47:00,
2013-02-28 22:52:00,50.8,48.0,30.42,ESE,122,0.0,0.0,90,0.00,,,0.00,WeatherTracker,2013-03-01 06:52:00,
2013-02-28 22:57:00,50.6,47.8,30.42,ESE,122,0.0,0.0,90,0.00,,,0.00,WeatherTracker,2013-03-01 06:57:00,
2013-02-28 23:02:00,50.4,47.9,30.42,ESE,122,0.0,0.0,91,0.00,,,0.00,WeatherTracker,2013-03-01 07:02:00,
2013-02-28 23:07:00,50.2,47.7,30.41,ESE,123,0.0,0.0,91,0.00,,,0.00,WeatherTracker,2013-03-01 07:07:00,
2013-02-28 23:12:00,50.0,47.5,30.41,ESE,123,0.0,0.0,91,0.00,,,0.00,WeatherTracker,2013-03-01 07:12:00,
2013-02-28 23:17:00,49.9,47.4,30.41,ESE,122,0.0,0.0,91,0.00,,,0.00,WeatherTracker,2013-03-01 07:17:00,
2013-02-28 23:22:00,49.9,47.4,30.42,ESE,123,1.0,0.0,91,0.00,,,0.00,WeatherTracker,2013-03-01 07:22:00,
2013-02-28 23:27:00,50.0,47.5,30.42,SE,146,0.0,0.0,91,0.00,,,0.00,WeatherTracker,2013-03-01 07:27:00,
2013-02-28 23:32:00,50.0,47.5,30.41,SE,143,0.0,0.0,91,0.00,,,0.00,WeatherTracker,2013-03-01 07:32:00,
2013-02-28 23:37:00,50.1,47.6,30.41,SE,142,0.0,0.0,91,0.00,,,0.00,WeatherTracker,2013-03-01 07:37:00,
2013-02-28 23:42:00,50.2,47.7,30.41,East,98,0.0,0.0,91,0.00,,,0.00,WeatherTracker,2013-03-01 07:42:00,
2013-02-28 23:47:00,50.2,47.7,30.41,ESE,122,1.0,0.0,91,0.00,,,0.00,WeatherTracker,2013-03-01 07:47:00,
2013-02-28 23:52:00,50.3,47.8,30.41,SE,124,2.0,0.0,91,0.00,,,0.00,WeatherTracker,2013-03-01 07:52:00,
2013-02-28 23:57:00,50.3,47.8,30.41,ESE,121,0.0,0.0,91,0.00,,,0.00,WeatherTracker,2013-03-01 07:57:00,